Time;durP1;ratioP1;P1;durP2;ratioP2;P2;SDS_P1;SDS_P2;PMS_P1;PMS_P2;Temp;Humidity;BMP_temperature;BMP_pressure;BME280_temperature;BME280_humidity;BME280_pressure;Samples;Min_cycle;Max_cycle;Signal;HPM_P1;HPM_P2
2023/12/17 00:01:28;;;;;;;9.30;3.50;;;;;;;;;;5014273;28;20076;-70
2023/12/17 00:03:54;;;;;;;7.07;3.70;;;;;;;;;;5013946;28;20041;-68
2023/12/17 00:06:19;;;;;;;8.30;3.77;;;;;;;;;;5013620;28;20044;-70
2023/12/17 00:08:45;;;;;;;9.90;3.80;;;;;;;;;;5032053;28;20029;-68
2023/12/17 00:11:11;;;;;;;12.00;3.80;;;;;;;;;;4998195;28;20033;-70
2023/12/17 00:13:37;;;;;;;11.83;4.03;;;;;;;;;;5016020;28;20034;-70
2023/12/17 00:16:05;;;;;;;16.30;3.67;;;;;;;;;;5033516;28;20093;-69
2023/12/17 00:18:31;;;;;;;9.83;4.67;;;;;;;;;;5014167;28;20029;-70
2023/12/17 00:20:57;;;;;;;10.10;3.77;;;;;;;;;;5030816;28;20488;-71
2023/12/17 00:23:22;;;;;;;9.80;4.57;;;;;;;;;;5035396;28;20029;-70
2023/12/17 00:25:48;;;;;;;11.73;4.10;;;;;;;;;;5018676;28;20029;-71
2023/12/17 00:28:14;;;;;;;13.97;4.63;;;;;;;;;;5018750;28;20124;-70
2023/12/17 00:30:39;;;;;;;14.80;4.63;;;;;;;;;;5036599;28;20082;-69
2023/12/17 00:33:05;;;;;;;11.87;4.87;;;;;;;;;;5019547;28;20124;-71
2023/12/17 00:35:31;;;;;;;12.23;4.90;;;;;;;;;;5037123;28;20512;-71
2023/12/17 00:37:56;;;;;;;12.47;5.47;;;;;;;;;;5036892;28;20047;-70
2023/12/17 00:40:22;;;;;;;16.33;5.37;;;;;;;;;;5018411;28;20025;-69
2023/12/17 00:42:48;;;;;;;10.50;5.30;;;;;;;;;;5035623;28;20029;-72
2023/12/17 00:45:14;;;;;;;14.20;5.33;;;;;;;;;;5036424;28;20025;-70
2023/12/17 00:47:41;;;;;;;10.37;4.67;;;;;;;;;;5019150;28;20013;-70
2023/12/17 00:50:08;;;;;;;10.83;5.47;;;;;;;;;;5020050;28;20039;-73
2023/12/17 00:52:33;;;;;;;13.27;5.60;;;;;;;;;;5038405;28;20029;-69
2023/12/17 00:54:59;;;;;;;11.60;5.60;;;;;;;;;;5020294;28;20106;-70
2023/12/17 00:57:25;;;;;;;15.90;5.33;;;;;;;;;;5004011;28;20152;-72
2023/12/17 00:59:51;;;;;;;16.93;5.97;;;;;;;;;;4987932;28;20037;-71
2023/12/17 01:02:17;;;;;;;11.37;4.93;;;;;;;;;;5020057;28;20029;-70
2023/12/17 01:04:42;;;;;;;10.13;4.70;;;;;;;;;;5039183;28;20072;-71
2023/12/17 01:07:08;;;;;;;12.80;5.67;;;;;;;;;;5038547;28;20021;-72
2023/12/17 01:09:33;;;;;;;17.33;5.60;;;;;;;;;;5037629;28;20060;-69
2023/12/17 01:12:02;;;;;;;12.60;5.23;;;;;;;;;;5018949;28;20031;-74
2023/12/17 01:14:34;;;;;;;15.83;6.10;;;;;;;;;;5037863;28;20063;-69
2023/12/17 01:17:03;;;;;;;15.48;6.22;;;;;;;;;;5019338;28;20040;-70
2023/12/17 01:19:29;;;;;;;11.90;6.20;;;;;;;;;;5018592;28;20033;-71
2023/12/17 01:22:00;;;;;;;10.57;5.10;;;;;;;;;;5037213;28;20062;-69
2023/12/17 01:24:26;;;;;;;10.03;5.53;;;;;;;;;;5018858;28;20029;-73
2023/12/17 01:26:51;;;;;;;14.93;5.93;;;;;;;;;;5037156;28;20581;-70
2023/12/17 01:29:17;;;;;;;11.80;6.03;;;;;;;;;;5019591;28;20026;-70
2023/12/17 01:31:42;;;;;;;12.07;5.43;;;;;;;;;;5019864;28;20397;-69
2023/12/17 01:34:08;;;;;;;10.40;5.23;;;;;;;;;;5019022;28;20347;-70
2023/12/17 01:36:33;;;;;;;12.60;5.90;;;;;;;;;;5036818;28;20037;-70
2023/12/17 01:38:59;;;;;;;13.60;6.13;;;;;;;;;;5019046;28;20446;-70
2023/12/17 01:41:28;;;;;;;12.50;6.53;;;;;;;;;;5019282;28;20029;-70
2023/12/17 01:43:53;;;;;;;21.00;6.23;;;;;;;;;;5020247;28;20469;-69
2023/12/17 01:46:19;;;;;;;15.23;5.23;;;;;;;;;;5019375;28;20028;-70
2023/12/17 01:48:45;;;;;;;11.80;5.77;;;;;;;;;;5037468;28;20497;-71
2023/12/17 01:51:13;;;;;;;15.30;5.40;;;;;;;;;;5019557;28;20044;-70
2023/12/17 01:53:40;;;;;;;14.53;6.17;;;;;;;;;;5037043;28;20033;-71
2023/12/17 01:56:10;;;;;;;13.90;5.47;;;;;;;;;;5018537;28;20029;-69
2023/12/17 01:58:36;;;;;;;7.57;4.20;;;;;;;;;;5018380;28;20018;-69
2023/12/17 02:01:03;;;;;;;14.67;5.27;;;;;;;;;;5018711;28;20052;-70
2023/12/17 02:03:28;;;;;;;13.90;4.60;;;;;;;;;;5019011;28;20129;-68
2023/12/17 02:05:54;;;;;;;13.03;4.87;;;;;;;;;;5018272;28;20056;-71
2023/12/17 02:08:20;;;;;;;9.50;4.53;;;;;;;;;;5035911;28;20362;-70
2023/12/17 02:10:45;;;;;;;6.07;3.43;;;;;;;;;;5018521;28;20025;-73
2023/12/17 02:13:11;;;;;;;12.17;4.60;;;;;;;;;;5018108;28;20392;-70
2023/12/17 02:15:37;;;;;;;12.10;4.27;;;;;;;;;;5036185;28;20018;-70
2023/12/17 02:18:06;;;;;;;12.73;5.03;;;;;;;;;;5036064;28;20025;-71
2023/12/17 02:20:31;;;;;;;9.30;4.40;;;;;;;;;;5019071;28;20087;-70
2023/12/17 02:22:58;;;;;;;11.73;4.33;;;;;;;;;;5021232;28;20049;-72
2023/12/17 02:25:27;;;;;;;11.57;3.70;;;;;;;;;;5038960;28;20048;-71
2023/12/17 02:27:56;;;;;;;14.20;4.27;;;;;;;;;;5019686;28;20504;-70
2023/12/17 02:30:22;;;;;;;8.13;3.70;;;;;;;;;;5036125;28;20033;-72
2023/12/17 02:32:49;;;;;;;13.70;4.23;;;;;;;;;;5035476;28;20053;-70
2023/12/17 02:35:14;;;;;;;12.37;3.67;;;;;;;;;;5018098;28;20512;-70
2023/12/17 02:37:40;;;;;;;12.53;4.43;;;;;;;;;;5035225;28;20026;-69
2023/12/17 02:40:06;;;;;;;6.27;4.17;;;;;;;;;;5035671;28;20427;-70
2023/12/17 02:42:32;;;;;;;12.87;4.20;;;;;;;;;;5036048;28;20048;-71
2023/12/17 02:44:57;;;;;;;8.37;3.77;;;;;;;;;;5034810;28;20476;-71
2023/12/17 02:47:24;;;;;;;11.70;4.30;;;;;;;;;;5034593;28;20473;-70
2023/12/17 02:49:50;;;;;;;13.67;4.67;;;;;;;;;;5017094;28;20037;-71
2023/12/17 02:52:15;;;;;;;12.00;4.20;;;;;;;;;;5016436;28;20021;-70
2023/12/17 02:54:42;;;;;;;11.87;4.73;;;;;;;;;;5033931;28;20022;-70
2023/12/17 02:57:09;;;;;;;11.67;4.03;;;;;;;;;;5015030;28;20036;-70
2023/12/17 02:59:34;;;;;;;16.90;4.33;;;;;;;;;;5016550;28;20111;-70
2023/12/17 03:02:00;;;;;;;12.23;4.57;;;;;;;;;;5034425;28;20084;-69
2023/12/17 03:04:25;;;;;;;8.37;3.10;;;;;;;;;;5034346;28;20088;-69
2023/12/17 03:06:51;;;;;;;9.50;3.80;;;;;;;;;;5017601;28;20086;-71
2023/12/17 03:09:17;;;;;;;8.90;3.20;;;;;;;;;;5015691;28;20060;-70
2023/12/17 03:11:43;;;;;;;9.83;3.80;;;;;;;;;;5034808;28;20060;-69
2023/12/17 03:14:09;;;;;;;7.40;3.67;;;;;;;;;;5015893;28;20370;-71
2023/12/17 03:16:36;;;;;;;10.30;4.00;;;;;;;;;;5034146;28;20025;-72
2023/12/17 03:19:01;;;;;;;6.93;3.53;;;;;;;;;;5034252;28;20029;-69
2023/12/17 03:21:30;;;;;;;7.07;3.80;;;;;;;;;;5016149;28;20033;-70
2023/12/17 03:23:56;;;;;;;15.73;3.80;;;;;;;;;;5016383;28;20029;-71
2023/12/17 03:26:23;;;;;;;12.63;4.13;;;;;;;;;;5034279;28;20120;-71
2023/12/17 03:28:49;;;;;;;8.77;3.77;;;;;;;;;;5034777;28;20394;-70
2023/12/17 03:31:17;;;;;;;9.97;4.40;;;;;;;;;;5033150;28;20125;-70
2023/12/17 03:33:44;;;;;;;14.00;3.40;;;;;;;;;;5033594;28;20099;-70
2023/12/17 03:36:16;;;;;;;11.47;3.70;;;;;;;;;;5033377;28;20021;-69
2023/12/17 03:38:43;;;;;;;12.68;3.92;;;;;;;;;;5015487;28;20028;-69
2023/12/17 03:41:23;;;;;;;12.87;4.20;;;;;;;;;;5015021;28;20033;-71
2023/12/17 03:43:51;;;;;;;10.80;4.17;;;;;;;;;;5033056;28;20452;-69
2023/12/17 03:46:18;;;;;;;8.73;3.63;;;;;;;;;;5033050;28;20035;-70
2023/12/17 03:48:43;;;;;;;11.37;3.83;;;;;;;;;;5015206;28;20392;-69
2023/12/17 03:51:10;;;;;;;13.53;4.33;;;;;;;;;;5033308;28;20057;-70
2023/12/17 03:53:36;;;;;;;12.90;5.07;;;;;;;;;;5034025;28;20029;-72
2023/12/17 03:56:01;;;;;;;9.63;3.77;;;;;;;;;;5033474;28;20029;-71
2023/12/17 03:58:27;;;;;;;12.90;3.80;;;;;;;;;;5036211;28;20608;-70
2023/12/17 04:00:53;;;;;;;9.50;3.57;;;;;;;;;;5019323;28;20089;-69
2023/12/17 04:03:19;;;;;;;10.40;4.43;;;;;;;;;;5037294;28;20021;-70
2023/12/17 04:05:45;;;;;;;10.47;4.23;;;;;;;;;;5036910;28;20049;-69
2023/12/17 04:08:10;;;;;;;11.87;3.83;;;;;;;;;;5037004;28;20029;-70
2023/12/17 04:10:37;;;;;;;15.37;4.17;;;;;;;;;;5019355;28;20034;-68
2023/12/17 04:13:02;;;;;;;5.60;3.40;;;;;;;;;;5019394;28;20036;-70
2023/12/17 04:15:29;;;;;;;17.47;4.43;;;;;;;;;;5036173;28;20108;-69
2023/12/17 04:17:56;;;;;;;7.83;3.43;;;;;;;;;;5002541;28;20053;-70
2023/12/17 04:20:22;;;;;;;7.70;3.87;;;;;;;;;;5035594;28;20025;-71
2023/12/17 04:22:48;;;;;;;8.17;3.57;;;;;;;;;;5018288;28;20033;-69
2023/12/17 04:25:13;;;;;;;15.77;3.87;;;;;;;;;;5017846;28;20404;-71
2023/12/17 04:27:40;;;;;;;10.37;4.17;;;;;;;;;;5017337;28;20032;-70
2023/12/17 04:30:07;;;;;;;8.33;3.73;;;;;;;;;;5038215;28;20036;-68
2023/12/17 04:32:34;;;;;;;10.93;4.03;;;;;;;;;;5003423;28;20056;-72
2023/12/17 04:35:00;;;;;;;6.70;3.37;;;;;;;;;;5020891;28;20022;-69
2023/12/17 04:37:25;;;;;;;9.63;3.87;;;;;;;;;;5003545;28;20026;-71
2023/12/17 04:39:51;;;;;;;8.97;3.37;;;;;;;;;;5019703;28;20030;-71
2023/12/17 04:42:17;;;;;;;16.03;4.03;;;;;;;;;;5017590;28;20116;-70
2023/12/17 04:44:42;;;;;;;8.43;3.83;;;;;;;;;;5017406;28;20249;-71
2023/12/17 04:47:08;;;;;;;13.63;4.40;;;;;;;;;;5035035;28;20041;-70
2023/12/17 04:49:35;;;;;;;9.50;3.93;;;;;;;;;;5019967;28;20025;-69
2023/12/17 04:52:00;;;;;;;11.87;3.70;;;;;;;;;;5038270;28;20017;-69
2023/12/17 04:54:27;;;;;;;12.50;3.77;;;;;;;;;;5038360;28;20376;-69
2023/12/17 04:56:54;;;;;;;11.73;4.23;;;;;;;;;;5038566;28;20030;-70
2023/12/17 04:59:21;;;;;;;9.67;3.87;;;;;;;;;;5020760;28;20459;-69
2023/12/17 05:01:46;;;;;;;10.10;3.40;;;;;;;;;;5039082;28;20046;-70
2023/12/17 05:04:16;;;;;;;12.27;4.00;;;;;;;;;;5021321;28;20424;-69
2023/12/17 05:06:42;;;;;;;11.30;4.33;;;;;;;;;;5019988;28;20033;-69
2023/12/17 05:09:09;;;;;;;10.20;3.57;;;;;;;;;;5036171;28;20049;-70
2023/12/17 05:11:35;;;;;;;11.07;4.10;;;;;;;;;;5019720;28;20040;-70
2023/12/17 05:14:00;;;;;;;16.20;4.70;;;;;;;;;;5037609;28;20385;-70
2023/12/17 05:16:26;;;;;;;12.17;4.27;;;;;;;;;;5036861;28;20037;-70
2023/12/17 05:18:52;;;;;;;12.60;5.00;;;;;;;;;;5037029;28;20028;-70
2023/12/17 05:21:17;;;;;;;10.83;3.90;;;;;;;;;;5036766;28;20033;-70
2023/12/17 05:23:43;;;;;;;10.77;4.40;;;;;;;;;;5019690;28;20041;-71
2023/12/17 05:26:09;;;;;;;10.77;3.87;;;;;;;;;;5036893;28;20026;-69
2023/12/17 05:28:41;;;;;;;12.50;4.30;;;;;;;;;;5037014;28;20393;-69
2023/12/17 05:31:07;;;;;;;10.40;3.60;;;;;;;;;;5019590;28;20429;-70
2023/12/17 05:33:36;;;;;;;11.20;4.10;;;;;;;;;;5036183;28;20231;-69
2023/12/17 05:36:04;;;;;;;13.37;3.50;;;;;;;;;;5017923;28;20128;-71
2023/12/17 05:38:30;;;;;;;10.93;3.90;;;;;;;;;;5036324;28;20037;-70
2023/12/17 05:40:55;;;;;;;8.00;3.47;;;;;;;;;;5017685;28;20043;-71
2023/12/17 05:43:21;;;;;;;10.20;3.60;;;;;;;;;;5036221;28;20029;-70
2023/12/17 05:45:48;;;;;;;7.37;4.03;;;;;;;;;;5017920;28;20338;-71
2023/12/17 05:48:14;;;;;;;10.97;4.07;;;;;;;;;;5018313;28;20048;-70
2023/12/17 05:50:40;;;;;;;11.77;4.37;;;;;;;;;;5035665;28;20425;-72
2023/12/17 05:53:06;;;;;;;9.87;3.70;;;;;;;;;;5035236;28;20029;-70
2023/12/17 05:55:32;;;;;;;13.20;3.67;;;;;;;;;;5035308;28;20039;-69
2023/12/17 05:57:58;;;;;;;11.13;4.30;;;;;;;;;;5017709;28;20116;-69
2023/12/17 06:00:24;;;;;;;8.77;3.30;;;;;;;;;;5016743;28;20075;-70
2023/12/17 06:02:50;;;;;;;13.17;3.97;;;;;;;;;;5035475;28;20363;-70
2023/12/17 06:05:16;;;;;;;16.17;4.53;;;;;;;;;;5016833;28;20368;-72
2023/12/17 06:07:42;;;;;;;6.97;4.07;;;;;;;;;;5017562;28;20025;-69
2023/12/17 06:10:09;;;;;;;11.23;4.10;;;;;;;;;;5001122;28;20043;-73
2023/12/17 06:12:36;;;;;;;9.10;3.77;;;;;;;;;;5034731;28;20031;-70
2023/12/17 06:15:02;;;;;;;10.53;4.00;;;;;;;;;;5017393;28;20025;-70
2023/12/17 06:17:27;;;;;;;9.93;4.47;;;;;;;;;;5016502;28;20095;-69
2023/12/17 06:19:53;;;;;;;13.40;3.93;;;;;;;;;;5016959;28;20057;-70
2023/12/17 06:22:19;;;;;;;7.70;3.87;;;;;;;;;;5035058;28;20029;-70
2023/12/17 06:24:44;;;;;;;12.27;4.03;;;;;;;;;;5017572;28;20029;-69
2023/12/17 06:27:14;;;;;;;9.03;4.33;;;;;;;;;;5036115;28;20091;-69
2023/12/17 06:29:42;;;;;;;15.23;4.68;;;;;;;;;;5037512;28;20458;-71
2023/12/17 06:32:07;;;;;;;10.43;4.20;;;;;;;;;;5021819;28;20032;-70
2023/12/17 06:34:34;;;;;;;11.17;4.10;;;;;;;;;;5019766;28;20029;-69
2023/12/17 06:37:00;;;;;;;8.83;4.40;;;;;;;;;;5016547;28;20025;-71
2023/12/17 06:39:26;;;;;;;12.87;3.73;;;;;;;;;;5034165;28;20489;-70
2023/12/17 06:41:52;;;;;;;9.60;4.33;;;;;;;;;;5017179;28;20116;-70
2023/12/17 06:44:20;;;;;;;10.33;4.07;;;;;;;;;;5034893;28;20334;-69
2023/12/17 06:46:48;;;;;;;10.63;4.23;;;;;;;;;;5016783;28;20033;-69
2023/12/17 06:49:13;;;;;;;15.17;4.57;;;;;;;;;;5035276;28;20041;-70
2023/12/17 06:51:40;;;;;;;8.70;3.57;;;;;;;;;;5017676;28;20056;-70
2023/12/17 06:54:06;;;;;;;11.10;3.93;;;;;;;;;;5002014;28;20473;-69
2023/12/17 06:56:31;;;;;;;8.23;4.13;;;;;;;;;;5017183;28;20029;-70
2023/12/17 06:58:57;;;;;;;7.90;3.77;;;;;;;;;;5016980;28;20116;-72
2023/12/17 07:01:24;;;;;;;8.57;4.03;;;;;;;;;;5016254;28;20049;-72
2023/12/17 07:03:50;;;;;;;9.57;4.43;;;;;;;;;;5031066;28;20095;-69
2023/12/17 07:06:17;;;;;;;10.23;4.07;;;;;;;;;;5012472;28;20485;-71
2023/12/17 07:08:44;;;;;;;13.20;4.07;;;;;;;;;;5011949;28;20120;-69
2023/12/17 07:11:10;;;;;;;9.83;4.00;;;;;;;;;;5029928;28;20115;-69
2023/12/17 07:13:36;;;;;;;9.60;3.70;;;;;;;;;;5012246;28;20029;-72
2023/12/17 07:16:02;;;;;;;12.73;4.20;;;;;;;;;;5029755;28;20474;-70
2023/12/17 07:18:27;;;;;;;10.60;3.63;;;;;;;;;;5011815;28;20741;-69
2023/12/17 07:20:53;;;;;;;10.17;3.97;;;;;;;;;;5012283;28;20458;-70
2023/12/17 07:23:22;;;;;;;11.97;4.07;;;;;;;;;;5030126;28;20025;-69
2023/12/17 07:25:47;;;;;;;11.33;3.87;;;;;;;;;;5012202;28;20029;-70
2023/12/17 07:28:13;;;;;;;10.67;4.43;;;;;;;;;;5012105;28;20044;-70
2023/12/17 07:30:38;;;;;;;8.07;4.03;;;;;;;;;;5029452;28;20029;-71
2023/12/17 07:33:06;;;;;;;16.20;4.83;;;;;;;;;;5011732;28;20025;-69
2023/12/17 07:35:31;;;;;;;12.17;4.67;;;;;;;;;;5011810;28;20468;-71
2023/12/17 07:37:57;;;;;;;11.10;4.30;;;;;;;;;;5012171;28;20072;-69
2023/12/17 07:40:24;;;;;;;10.37;3.63;;;;;;;;;;5029472;28;20104;-69
2023/12/17 07:42:50;;;;;;;10.33;4.53;;;;;;;;;;5029750;28;20021;-71
2023/12/17 07:45:15;;;;;;;7.47;4.33;;;;;;;;;;5012047;28;20103;-71
2023/12/17 07:47:41;;;;;;;10.70;4.57;;;;;;;;;;5011654;28;20156;-70
2023/12/17 07:50:08;;;;;;;9.90;4.47;;;;;;;;;;5029601;28;20040;-69
2023/12/17 07:52:33;;;;;;;11.83;4.17;;;;;;;;;;5029713;28;20053;-70
2023/12/17 07:54:59;;;;;;;11.67;4.40;;;;;;;;;;5029610;28;20488;-71
2023/12/17 07:57:25;;;;;;;11.60;4.60;;;;;;;;;;5011633;28;20029;-70
2023/12/17 07:59:51;;;;;;;11.03;4.33;;;;;;;;;;5029554;28;20021;-70
2023/12/17 08:02:16;;;;;;;10.57;5.00;;;;;;;;;;5011173;28;20029;-72
2023/12/17 08:04:45;;;;;;;12.67;4.57;;;;;;;;;;5029942;28;20033;-70
2023/12/17 08:07:11;;;;;;;10.47;4.23;;;;;;;;;;5029470;28;20040;-69
2023/12/17 08:09:37;;;;;;;9.63;4.37;;;;;;;;;;5029602;28;20029;-70
2023/12/17 08:12:02;;;;;;;14.00;4.53;;;;;;;;;;5011646;28;20101;-71
2023/12/17 08:14:28;;;;;;;12.67;4.60;;;;;;;;;;5011683;28;20573;-71
2023/12/17 08:16:54;;;;;;;7.87;4.27;;;;;;;;;;5011801;28;20116;-72
2023/12/17 08:19:21;;;;;;;9.07;4.40;;;;;;;;;;5029937;28;20116;-70
2023/12/17 08:21:46;;;;;;;7.10;4.33;;;;;;;;;;5029337;28;20029;-70
2023/12/17 08:24:12;;;;;;;8.77;4.37;;;;;;;;;;5011697;28;20033;-70
2023/12/17 08:26:37;;;;;;;10.13;4.00;;;;;;;;;;5011051;28;20064;-70
2023/12/17 08:29:03;;;;;;;11.30;5.03;;;;;;;;;;5029748;28;20044;-69
2023/12/17 08:31:29;;;;;;;13.77;4.43;;;;;;;;;;5029425;28;20033;-71
2023/12/17 08:33:58;;;;;;;9.07;3.90;;;;;;;;;;5011631;28;20033;-71
2023/12/17 08:36:25;;;;;;;10.63;4.83;;;;;;;;;;5029251;28;20038;-70
2023/12/17 08:38:51;;;;;;;11.13;4.37;;;;;;;;;;5011429;28;20025;-71
2023/12/17 08:41:16;;;;;;;9.43;4.10;;;;;;;;;;5029286;28;20109;-69
2023/12/17 08:43:42;;;;;;;10.40;4.40;;;;;;;;;;5029803;28;20116;-69
2023/12/17 08:46:07;;;;;;;8.47;3.93;;;;;;;;;;5015104;28;20022;-69
2023/12/17 08:48:33;;;;;;;10.67;4.20;;;;;;;;;;5032580;28;20033;-70
2023/12/17 08:50:58;;;;;;;10.07;4.30;;;;;;;;;;5032784;28;20424;-71
2023/12/17 08:53:26;;;;;;;7.03;4.97;;;;;;;;;;5015097;28;20116;-69
2023/12/17 08:55:52;;;;;;;8.90;4.40;;;;;;;;;;5014852;28;20032;-71
2023/12/17 08:58:18;;;;;;;8.53;4.10;;;;;;;;;;5014934;28;20030;-70
2023/12/17 09:00:43;;;;;;;12.30;4.20;;;;;;;;;;5013977;28;20068;-70
2023/12/17 09:03:09;;;;;;;8.43;4.10;;;;;;;;;;5031940;28;20142;-69
2023/12/17 09:05:37;;;;;;;9.47;4.80;;;;;;;;;;4998103;28;20040;-71
2023/12/17 09:08:03;;;;;;;12.37;4.27;;;;;;;;;;5014650;28;20030;-70
2023/12/17 09:10:33;;;;;;;9.33;4.37;;;;;;;;;;5032105;28;20461;-71
2023/12/17 09:12:59;;;;;;;9.90;3.90;;;;;;;;;;5033080;28;20056;-70
2023/12/17 09:15:25;;;;;;;9.90;4.00;;;;;;;;;;4999080;28;20482;-70
2023/12/17 09:17:51;;;;;;;10.50;3.77;;;;;;;;;;5033039;28;20033;-70
2023/12/17 09:20:17;;;;;;;12.50;3.93;;;;;;;;;;5015560;28;20362;-71
2023/12/17 09:22:43;;;;;;;16.53;3.87;;;;;;;;;;5014323;28;20348;-70
2023/12/17 09:25:09;;;;;;;13.20;5.03;;;;;;;;;;5014759;28;20037;-70
2023/12/17 09:27:39;;;;;;;10.10;3.23;;;;;;;;;;5032902;28;20021;-70
2023/12/17 09:30:08;;;;;;;8.17;3.57;;;;;;;;;;5034237;28;20056;-70
2023/12/17 09:32:33;;;;;;;8.10;3.47;;;;;;;;;;5032331;28;20051;-70
2023/12/17 09:34:59;;;;;;;9.87;3.93;;;;;;;;;;5015987;28;20025;-69
2023/12/17 09:37:25;;;;;;;9.47;4.00;;;;;;;;;;5033457;28;20045;-70
2023/12/17 09:39:50;;;;;;;8.97;3.40;;;;;;;;;;5032041;28;20144;-70
2023/12/17 09:42:20;;;;;;;11.83;4.17;;;;;;;;;;5031427;28;20092;-71
2023/12/17 09:44:45;;;;;;;6.93;3.40;;;;;;;;;;5031640;28;20056;-69
2023/12/17 09:47:11;;;;;;;12.37;3.90;;;;;;;;;;5031305;28;20414;-70
2023/12/17 09:49:36;;;;;;;12.80;4.17;;;;;;;;;;5031852;28;20037;-69
2023/12/17 09:52:07;;;;;;;7.17;3.30;;;;;;;;;;5013690;28;20045;-69
2023/12/17 09:54:33;;;;;;;10.17;3.87;;;;;;;;;;4997822;28;20035;-68
2023/12/17 09:57:00;;;;;;;7.37;3.63;;;;;;;;;;5014314;28;20112;-71
2023/12/17 09:59:26;;;;;;;8.37;4.07;;;;;;;;;;5013561;28;20047;-70
2023/12/17 10:01:52;;;;;;;9.03;3.23;;;;;;;;;;5031427;28;20129;-69
2023/12/17 10:04:26;;;;;;;11.30;3.90;;;;;;;;;;5014464;28;20367;-69
2023/12/17 10:06:53;;;;;;;7.20;3.88;;;;;;;;;;4997391;28;20550;-69
2023/12/17 10:09:19;;;;;;;8.55;3.25;;;;;;;;;;5013425;28;20073;-70
2023/12/17 10:11:44;;;;;;;7.03;2.80;;;;;;;;;;5030988;28;20478;-71
2023/12/17 10:14:24;;;;;;;9.07;3.65;;;;;;;;;;5013589;28;20029;-69
2023/12/17 10:16:51;;;;;;;9.23;3.28;;;;;;;;;;5013555;28;20029;-69
2023/12/17 10:19:17;;;;;;;6.55;2.90;;;;;;;;;;5031386;28;20039;-70
2023/12/17 10:21:44;;;;;;;7.03;3.60;;;;;;;;;;5031493;28;20142;-72
2023/12/17 10:24:10;;;;;;;6.93;3.40;;;;;;;;;;5014007;28;20030;-70
2023/12/17 10:26:45;;;;;;;7.07;3.08;;;;;;;;;;5031589;28;20025;-70
2023/12/17 10:29:16;;;;;;;9.60;3.50;;;;;;;;;;5013778;28;20030;-71
2023/12/17 10:31:43;;;;;;;11.38;4.43;;;;;;;;;;5013568;28;20068;-70
2023/12/17 10:34:19;;;;;;;9.65;3.00;;;;;;;;;;5014275;28;20487;-70
2023/12/17 10:36:52;;;;;;;6.15;3.15;;;;;;;;;;5015172;28;20036;-70
2023/12/17 10:39:20;;;;;;;9.45;3.00;;;;;;;;;;5036047;28;20032;-69
2023/12/17 10:41:51;;;;;;;10.25;3.30;;;;;;;;;;5016800;28;20044;-70
2023/12/17 10:44:20;;;;;;;7.70;3.08;;;;;;;;;;5033398;28;20040;-70
2023/12/17 10:46:46;;;;;;;8.18;3.45;;;;;;;;;;5016363;28;20085;-70
2023/12/17 10:49:13;;;;;;;8.73;3.33;;;;;;;;;;5035328;28;20061;-72
2023/12/17 10:51:42;;;;;;;5.35;2.95;;;;;;;;;;5035587;28;20025;-70
2023/12/17 10:54:08;;;;;;;11.65;4.32;;;;;;;;;;5019063;28;20097;-68
2023/12/17 10:56:45;;;;;;;5.85;2.53;;;;;;;;;;5033971;28;20033;-69
2023/12/17 10:59:14;;;;;;;8.30;3.08;;;;;;;;;;5015802;28;20428;-71
2023/12/17 11:01:43;;;;;;;9.43;2.78;;;;;;;;;;5033570;28;20076;-71
2023/12/17 11:04:08;;;;;;;7.60;2.78;;;;;;;;;;5018267;28;20401;-72
2023/12/17 11:06:34;;;;;;;5.53;2.85;;;;;;;;;;5034170;28;20025;-71
2023/12/17 11:09:00;;;;;;;6.72;3.50;;;;;;;;;;5018447;28;20033;-70
2023/12/17 11:11:30;;;;;;;7.97;3.10;;;;;;;;;;5035701;28;20037;-70
2023/12/17 11:13:56;;;;;;;8.50;2.88;;;;;;;;;;5018561;28;20466;-72
2023/12/17 11:16:24;;;;;;;7.50;3.20;;;;;;;;;;5019892;28;20035;-70
2023/12/17 11:18:51;;;;;;;6.00;3.28;;;;;;;;;;5003015;28;20032;-71
2023/12/17 11:21:18;;;;;;;9.55;3.05;;;;;;;;;;4998293;28;20127;-72
2023/12/17 11:23:48;;;;;;;5.35;2.53;;;;;;;;;;5013968;28;20056;-71
2023/12/17 11:26:19;;;;;;;8.82;2.63;;;;;;;;;;5013260;28;20037;-72
2023/12/17 11:28:45;;;;;;;;;;;;;;;;;;5017638;28;20116;-71
2023/12/17 11:31:12;;;;;;;5.85;2.70;;;;;;;;;;5016967;28;20351;-72
2023/12/17 11:33:39;;;;;;;8.02;3.15;;;;;;;;;;4983866;28;20021;-70
2023/12/17 11:36:07;;;;;;;7.65;3.83;;;;;;;;;;5032819;28;20108;-72
2023/12/17 11:38:37;;;;;;;8.38;3.92;;;;;;;;;;4998258;28;20392;-72
2023/12/17 11:41:04;;;;;;;9.93;2.92;;;;;;;;;;5033088;28;20100;-71
2023/12/17 11:43:33;;;;;;;6.75;3.60;;;;;;;;;;5015674;28;20044;-70
2023/12/17 11:45:58;;;;;;;7.20;2.97;;;;;;;;;;5016178;28;20095;-71
2023/12/17 11:48:26;;;;;;;7.05;2.80;;;;;;;;;;5014310;28;20457;-69
2023/12/17 11:50:59;;;;;;;8.30;3.30;;;;;;;;;;5032574;28;20018;-69
2023/12/17 11:53:26;;;;;;;11.88;3.10;;;;;;;;;;5031791;28;20091;-70
2023/12/17 11:55:59;;;;;;;10.43;3.28;;;;;;;;;;5033477;28;20024;-70
2023/12/17 11:58:26;;;;;;;8.55;2.95;;;;;;;;;;5015542;28;20052;-69
2023/12/17 12:01:12;;;;;;;10.73;3.63;;;;;;;;;;5029575;28;20056;-72
2023/12/17 12:03:41;;;;;;;10.57;3.13;;;;;;;;;;5011745;28;20110;-71
2023/12/17 12:06:09;;;;;;;8.18;3.20;;;;;;;;;;4978452;28;20026;-71
2023/12/17 12:08:45;;;;;;;7.43;2.58;;;;;;;;;;5008688;28;20308;-69
2023/12/17 12:11:12;;;;;;;9.43;3.45;;;;;;;;;;5008959;28;20076;-70
2023/12/17 12:13:42;;;;;;;8.27;3.05;;;;;;;;;;5026050;28;20033;-70
2023/12/17 12:16:12;;;;;;;9.48;3.15;;;;;;;;;;5012023;28;20087;-71
2023/12/17 12:18:42;;;;;;;4.68;2.58;;;;;;;;;;5031422;28;20037;-71
2023/12/17 12:21:16;;;;;;;11.93;3.00;;;;;;;;;;5033073;28;20372;-70
2023/12/17 12:23:49;;;;;;;6.95;4.30;;;;;;;;;;5033164;28;20032;-71
2023/12/17 12:26:15;;;;;;;5.07;2.53;;;;;;;;;;4999574;28;20025;-69
2023/12/17 12:28:41;;;;;;;7.55;2.92;;;;;;;;;;5015648;28;20048;-70
2023/12/17 12:31:09;;;;;;;8.88;3.50;;;;;;;;;;5035130;28;20040;-71
2023/12/17 12:33:35;;;;;;;7.70;3.47;;;;;;;;;;5033967;28;20037;-69
2023/12/17 12:36:06;;;;;;;4.50;2.63;;;;;;;;;;5034166;28;20398;-69
2023/12/17 12:38:31;;;;;;;5.93;2.83;;;;;;;;;;5016373;28;20140;-70
2023/12/17 12:40:57;;;;;;;7.80;3.45;;;;;;;;;;5032814;28;20116;-70
2023/12/17 12:43:23;;;;;;;6.40;3.25;;;;;;;;;;4998712;28;20466;-69
2023/12/17 12:45:53;;;;;;;8.35;2.90;;;;;;;;;;5015539;28;20026;-70
2023/12/17 12:48:23;;;;;;;9.98;3.50;;;;;;;;;;5033974;28;20075;-71
2023/12/17 12:50:50;;;;;;;5.75;2.58;;;;;;;;;;5016316;28;20030;-69
2023/12/17 12:53:20;;;;;;;5.47;3.00;;;;;;;;;;5033599;28;20037;-70
2023/12/17 12:55:47;;;;;;;8.90;3.15;;;;;;;;;;5035109;28;20397;-71
2023/12/17 12:58:14;;;;;;;6.05;3.05;;;;;;;;;;5017715;28;20029;-70
2023/12/17 13:00:46;;;;;;;4.70;2.97;;;;;;;;;;5015581;28;20188;-72
2023/12/17 13:03:12;;;;;;;8.32;3.10;;;;;;;;;;5031441;28;20038;-71
2023/12/17 13:05:39;;;;;;;7.43;2.95;;;;;;;;;;5032558;28;20116;-70
2023/12/17 13:08:10;;;;;;;11.05;3.63;;;;;;;;;;5031977;28;20387;-70
2023/12/17 13:10:35;;;;;;;13.93;3.63;;;;;;;;;;5032388;28;20029;-69
2023/12/17 13:13:02;;;;;;;8.93;3.42;;;;;;;;;;5032208;28;20493;-73
2023/12/17 13:15:29;;;;;;;8.95;3.13;;;;;;;;;;5014670;28;20061;-72
2023/12/17 13:17:58;;;;;;;7.05;2.85;;;;;;;;;;5014393;28;20037;-72
2023/12/17 13:20:23;;;;;;;6.75;3.08;;;;;;;;;;5014669;28;20189;-71
2023/12/17 13:22:49;;;;;;;9.77;3.58;;;;;;;;;;5013985;28;20022;-70
2023/12/17 13:25:15;;;;;;;8.43;2.97;;;;;;;;;;5031833;28;20033;-71
2023/12/17 13:27:40;;;;;;;7.35;3.80;;;;;;;;;;5032133;28;20358;-70
2023/12/17 13:30:06;;;;;;;7.57;2.95;;;;;;;;;;5013548;28;20354;-69
2023/12/17 13:32:32;;;;;;;6.22;3.08;;;;;;;;;;5013924;28;20021;-71
2023/12/17 13:34:57;;;;;;;7.55;3.42;;;;;;;;;;5031786;28;20546;-71
2023/12/17 13:37:24;;;;;;;5.22;3.00;;;;;;;;;;5031386;28;20465;-70
2023/12/17 13:39:50;;;;;;;6.80;3.00;;;;;;;;;;5031616;28;20064;-71
2023/12/17 13:42:16;;;;;;;10.82;3.53;;;;;;;;;;5014282;28;20036;-71
2023/12/17 13:44:41;;;;;;;9.25;3.58;;;;;;;;;;5032157;28;20366;-70
2023/12/17 13:47:07;;;;;;;8.63;3.72;;;;;;;;;;5031645;28;20036;-71
2023/12/17 13:49:35;;;;;;;7.32;3.15;;;;;;;;;;5031101;28;20096;-70
2023/12/17 13:52:06;;;;;;;7.75;3.10;;;;;;;;;;5013326;28;20083;-71
2023/12/17 13:54:32;;;;;;;8.15;4.00;;;;;;;;;;5031572;28;20104;-70
2023/12/17 13:56:58;;;;;;;9.13;3.33;;;;;;;;;;5013982;28;20060;-71
2023/12/17 13:59:23;;;;;;;7.28;3.50;;;;;;;;;;5031568;28;20104;-70
2023/12/17 14:01:49;;;;;;;5.90;3.33;;;;;;;;;;5030747;28;20049;-71
2023/12/17 14:04:15;;;;;;;5.80;3.78;;;;;;;;;;5013424;28;20422;-69
2023/12/17 14:06:40;;;;;;;6.47;3.40;;;;;;;;;;5014161;28;20088;-71
2023/12/17 14:09:06;;;;;;;10.18;3.33;;;;;;;;;;5013744;28;20026;-71
2023/12/17 14:11:31;;;;;;;7.93;3.30;;;;;;;;;;5030975;28;20069;-70
2023/12/17 14:13:59;;;;;;;8.43;3.50;;;;;;;;;;5012695;28;20032;-70
2023/12/17 14:16:28;;;;;;;8.63;3.55;;;;;;;;;;5013550;28;20087;-69
2023/12/17 14:18:55;;;;;;;9.98;4.00;;;;;;;;;;5013520;28;20049;-71
2023/12/17 14:21:23;;;;;;;7.85;3.70;;;;;;;;;;5013548;28;20029;-70
2023/12/17 14:23:54;;;;;;;10.55;4.43;;;;;;;;;;5031024;28;20033;-70
2023/12/17 14:26:20;;;;;;;8.32;5.15;;;;;;;;;;5012946;28;20486;-71
2023/12/17 14:28:46;;;;;;;7.97;3.67;;;;;;;;;;5031632;28;20030;-68
2023/12/17 14:31:13;;;;;;;8.07;3.53;;;;;;;;;;5031436;28;20052;-70
2023/12/17 14:33:39;;;;;;;9.32;3.90;;;;;;;;;;5032190;28;20040;-70